createdAt,value
2022-10-17T00:00:23.478Z,64.24
2022-10-17T00:01:24.934Z,64.20
2022-10-17T00:02:26.532Z,64.22
2022-10-17T00:03:28.032Z,64.06
2022-10-17T00:04:29.536Z,64.35
2022-10-17T00:05:31.103Z,63.99
2022-10-17T00:06:32.582Z,63.80
2022-10-17T00:07:34.051Z,64.25
2022-10-17T00:08:36.284Z,64.10
2022-10-17T00:09:37.751Z,64.43
2022-10-17T00:10:39.794Z,64.50
2022-10-17T00:11:41.238Z,64.88
2022-10-17T00:12:42.720Z,65.46
2022-10-17T00:13:46.014Z,66.91
2022-10-17T00:14:47.447Z,67.52
2022-10-17T00:15:48.839Z,67.92
2022-10-17T00:16:50.241Z,68.06
2022-10-17T00:17:51.732Z,67.22
2022-10-17T00:18:53.578Z,67.17
2022-10-17T00:19:55.012Z,67.67
2022-10-17T00:20:56.465Z,67.93
2022-10-17T00:21:57.879Z,69.40
2022-10-17T00:22:59.364Z,69.09
2022-10-17T00:24:01.531Z,69.15
2022-10-17T00:25:03.944Z,69.14
2022-10-17T00:26:05.917Z,69.13
2022-10-17T00:27:07.353Z,69.30
2022-10-17T00:28:10.019Z,70.56
2022-10-17T00:29:12.767Z,70.58
2022-10-17T00:30:16.068Z,71.15
2022-10-17T00:31:18.947Z,71.52
2022-10-17T00:32:20.487Z,71.14
2022-10-17T00:33:21.891Z,71.55
2022-10-17T00:34:23.803Z,71.59
2022-10-17T00:35:25.222Z,71.75
2022-10-17T00:36:26.839Z,71.57
2022-10-17T00:37:30.435Z,72.20
2022-10-17T00:38:32.139Z,71.89
2022-10-17T00:39:33.567Z,72.34
2022-10-17T00:40:35.016Z,72.62
2022-10-17T00:41:36.510Z,72.68
2022-10-17T00:42:38.032Z,72.69
2022-10-17T00:43:50.571Z,72.74
2022-10-17T00:45:15.751Z,73.25
2022-10-17T00:46:17.219Z,73.05
2022-10-17T00:47:22.080Z,72.93
2022-10-17T00:48:25.522Z,72.62
2022-10-17T00:49:30.097Z,73.03
2022-10-17T00:50:32.067Z,72.94
2022-10-17T00:51:38.328Z,73.08
2022-10-17T00:52:40.801Z,72.52
2022-10-17T00:53:42.289Z,72.38
2022-10-17T00:54:47.920Z,71.20
2022-10-17T00:55:51.516Z,70.88
2022-10-17T00:56:54.497Z,70.73
2022-10-17T00:57:56.403Z,71.73
2022-10-17T00:58:58.190Z,73.00
2022-10-17T01:00:03.574Z,73.57
2022-10-17T01:01:06.510Z,74.13
2022-10-17T01:02:12.224Z,73.08
2022-10-17T01:03:14.374Z,72.39
2022-10-17T01:04:16.006Z,71.73
2022-10-17T01:05:19.133Z,71.49
2022-10-17T01:06:20.612Z,71.48
2022-10-17T01:07:22.957Z,70.79
2022-10-17T01:08:24.553Z,70.49
2022-10-17T01:09:26.932Z,70.64
2022-10-17T01:10:34.069Z,71.04
2022-10-17T01:11:45.002Z,71.51
2022-10-17T01:12:59.935Z,71.20
2022-10-17T01:14:08.926Z,71.83
2022-10-17T01:15:16.736Z,71.73
2022-10-17T01:16:32.182Z,71.78
2022-10-17T01:17:43.359Z,72.08
2022-10-17T01:18:57.707Z,73.05
2022-10-17T01:20:31.831Z,73.92
2022-10-17T01:21:43.864Z,73.57
2022-10-17T01:22:49.795Z,74.23
2022-10-17T01:24:23.388Z,75.24
2022-10-17T01:25:33.275Z,75.28
2022-10-17T01:26:49.114Z,75.23
2022-10-17T01:28:00.279Z,75.23
2022-10-17T01:29:31.822Z,75.65
2022-10-17T01:30:55.751Z,75.15
2022-10-17T01:32:02.783Z,74.80
2022-10-17T01:33:10.753Z,74.77
2022-10-17T01:34:18.789Z,75.16
2022-10-17T01:35:26.810Z,75.21
2022-10-17T01:36:38.111Z,75.60
2022-10-17T01:37:46.413Z,75.79
2022-10-17T01:38:51.984Z,76.02
2022-10-17T01:40:00.161Z,76.22
2022-10-17T01:41:06.347Z,76.40
2022-10-17T01:42:14.913Z,76.47
2022-10-17T01:43:23.594Z,76.49
2022-10-17T01:44:32.448Z,76.58
2022-10-17T01:45:40.903Z,77.11
2022-10-17T01:46:49.093Z,76.91
2022-10-17T01:47:53.168Z,77.02
2022-10-17T01:48:58.122Z,77.11
2022-10-17T01:50:04.568Z,77.17
2022-10-17T01:51:11.279Z,77.14
2022-10-17T01:52:18.213Z,77.23
2022-10-17T01:53:26.510Z,77.48
2022-10-17T01:54:33.395Z,77.60
2022-10-17T01:55:37.371Z,77.63
2022-10-17T01:56:41.396Z,78.02
2022-10-17T01:57:47.913Z,78.14
2022-10-17T01:58:52.738Z,78.14
2022-10-17T01:59:55.971Z,77.95
2022-10-17T02:01:01.248Z,78.37
2022-10-17T02:02:06.187Z,78.41
2022-10-17T02:03:12.094Z,78.43
2022-10-17T02:04:13.563Z,78.47
2022-10-17T02:05:17.608Z,78.34
2022-10-17T02:06:19.243Z,78.26
2022-10-17T02:07:20.705Z,78.30
2022-10-17T02:08:26.242Z,78.44
2022-10-17T02:09:27.705Z,78.18
2022-10-17T02:10:38.652Z,78.56
2022-10-17T02:11:40.120Z,78.27
2022-10-17T02:12:51.186Z,79.01
2022-10-17T02:14:13.744Z,79.79
2022-10-17T02:15:40.160Z,80.89
2022-10-17T02:16:47.074Z,81.95
2022-10-17T02:18:03.829Z,82.61
2022-10-17T02:19:20.806Z,82.61
2022-10-17T02:20:26.465Z,81.77
2022-10-17T02:21:36.414Z,82.30
2022-10-17T02:22:43.503Z,82.47
2022-10-17T02:23:53.497Z,81.71
2022-10-17T02:25:00.460Z,81.92
2022-10-17T02:26:09.946Z,81.78
2022-10-17T02:27:14.979Z,81.41
2022-10-17T02:28:20.591Z,80.94
2022-10-17T02:29:28.608Z,81.23
2022-10-17T02:30:36.664Z,80.67
2022-10-17T02:31:41.672Z,81.15
2022-10-17T02:32:50.460Z,81.50
2022-10-17T02:33:58.340Z,81.65
2022-10-17T02:35:02.143Z,81.60
2022-10-17T02:36:09.601Z,81.73
2022-10-17T02:37:15.852Z,82.25
2022-10-17T02:38:18.908Z,82.24
2022-10-17T02:39:23.057Z,83.06
2022-10-17T02:40:26.441Z,83.02
2022-10-17T02:42:37.565Z,83.83
2022-10-17T02:43:39.960Z,83.47
2022-10-17T02:44:43.913Z,83.82
2022-10-17T02:45:46.971Z,84.08
2022-10-17T02:46:59.233Z,83.89
2022-10-17T02:48:04.529Z,84.20
2022-10-17T02:49:16.074Z,84.59
2022-10-17T02:50:21.393Z,84.21
2022-10-17T02:51:28.660Z,84.44
2022-10-17T02:52:39.849Z,84.20
2022-10-17T02:53:54.311Z,84.37
2022-10-17T02:55:00.979Z,84.24
2022-10-17T02:56:13.991Z,84.53
2022-10-17T02:57:21.400Z,84.05
2022-10-17T02:58:30.239Z,84.52
2022-10-17T03:00:42.302Z,83.28
2022-10-17T03:01:44.109Z,83.09
2022-10-17T03:02:47.409Z,82.83
2022-10-17T03:03:48.945Z,82.66
2022-10-17T03:04:51.736Z,82.52
2022-10-17T03:05:53.929Z,82.46
2022-10-17T03:06:55.508Z,82.48
2022-10-17T03:07:57.177Z,82.30
2022-10-17T03:08:58.607Z,82.13
2022-10-17T03:10:00.079Z,82.51
2022-10-17T03:11:01.851Z,82.24
2022-10-17T03:12:03.631Z,82.58
2022-10-17T03:13:05.069Z,82.54
2022-10-17T03:14:06.596Z,83.01
2022-10-17T03:15:09.128Z,83.10
2022-10-17T03:16:10.556Z,83.46
2022-10-17T03:17:12.011Z,83.81
2022-10-17T03:18:13.469Z,83.64
2022-10-17T03:19:14.912Z,83.69
2022-10-17T03:20:17.708Z,83.66
2022-10-17T03:21:19.165Z,83.91
2022-10-17T03:22:20.760Z,83.84
2022-10-17T03:23:22.213Z,83.70
2022-10-17T03:24:23.733Z,83.37
2022-10-17T03:25:25.185Z,83.49
2022-10-17T03:26:26.621Z,83.05
2022-10-17T03:27:28.324Z,83.13
2022-10-17T03:28:30.103Z,82.71
2022-10-17T03:29:31.557Z,82.31
2022-10-17T03:30:33.601Z,82.03
2022-10-17T03:31:36.130Z,81.62
2022-10-17T03:32:37.586Z,81.50
2022-10-17T03:33:39.028Z,81.18
2022-10-17T03:34:40.437Z,81.09
2022-10-17T03:35:43.257Z,81.17
2022-10-17T03:36:44.808Z,81.32
2022-10-17T03:37:46.192Z,81.38
2022-10-17T03:38:47.923Z,81.36
2022-10-17T03:39:49.374Z,81.67
2022-10-17T03:40:54.964Z,80.92
2022-10-17T03:41:56.449Z,80.12
2022-10-17T03:42:57.836Z,79.77
2022-10-17T03:43:59.250Z,79.39
2022-10-17T03:45:00.675Z,79.23
2022-10-17T03:46:02.363Z,79.82
2022-10-17T03:47:03.802Z,79.76
2022-10-17T03:48:05.888Z,79.87
2022-10-17T03:49:09.260Z,79.61
2022-10-17T03:50:10.689Z,79.09
2022-10-17T03:51:13.462Z,78.50
2022-10-17T03:52:14.967Z,78.67
2022-10-17T03:53:16.439Z,78.66
2022-10-17T03:54:17.902Z,78.38
2022-10-17T03:55:19.378Z,78.37
2022-10-17T03:56:23.165Z,78.63
2022-10-17T03:57:24.596Z,78.11
2022-10-17T03:58:26.024Z,78.43
2022-10-17T03:59:27.450Z,78.22
2022-10-17T04:00:28.968Z,78.58
2022-10-17T04:01:30.454Z,78.44
2022-10-17T04:02:31.899Z,78.23
2022-10-17T04:03:33.499Z,78.19
2022-10-17T04:04:34.988Z,78.42
2022-10-17T04:05:36.850Z,78.49
2022-10-17T04:06:39.698Z,78.85
2022-10-17T04:07:41.101Z,78.65
2022-10-17T04:08:42.513Z,78.88
2022-10-17T04:09:43.985Z,79.21
2022-10-17T04:10:45.429Z,79.88
2022-10-17T04:11:46.871Z,79.53
2022-10-17T04:12:48.341Z,79.79
2022-10-17T04:13:53.487Z,79.82
2022-10-17T04:14:54.900Z,80.74
2022-10-17T04:15:57.556Z,81.14
2022-10-17T04:16:58.985Z,81.25
2022-10-17T04:18:00.441Z,81.38
2022-10-17T04:19:02.251Z,81.82
2022-10-17T04:20:04.357Z,81.42
2022-10-17T04:21:07.211Z,80.88
2022-10-17T04:22:09.953Z,80.83
2022-10-17T04:23:11.392Z,81.09
2022-10-17T04:24:12.844Z,81.33
2022-10-17T04:25:14.295Z,80.97
2022-10-17T04:26:15.743Z,80.77
2022-10-17T04:27:17.167Z,80.69
2022-10-17T04:28:18.641Z,80.42
2022-10-17T04:29:20.187Z,80.56
2022-10-17T04:30:21.619Z,80.81
2022-10-17T04:31:23.097Z,80.82
2022-10-17T04:32:25.551Z,80.69
2022-10-17T04:33:27.314Z,80.63
2022-10-17T04:34:28.825Z,80.75
2022-10-17T04:35:30.351Z,81.17
2022-10-17T04:36:31.821Z,81.93
2022-10-17T04:37:34.626Z,82.29
2022-10-17T04:38:36.509Z,82.77
2022-10-17T04:39:38.013Z,82.82
2022-10-17T04:40:39.437Z,83.08
2022-10-17T04:41:40.877Z,83.17
2022-10-17T04:42:42.331Z,83.22
2022-10-17T04:43:46.923Z,83.64
2022-10-17T04:44:51.629Z,83.46
2022-10-17T04:45:53.042Z,83.25
2022-10-17T04:46:54.439Z,83.34
2022-10-17T04:47:55.903Z,83.62
2022-10-17T04:48:57.344Z,83.96
2022-10-17T04:49:58.984Z,83.77
2022-10-17T04:51:02.524Z,83.88
2022-10-17T04:52:04.364Z,83.77
2022-10-17T04:53:07.157Z,83.98
2022-10-17T04:54:08.622Z,83.84
2022-10-17T04:55:10.136Z,83.46
2022-10-17T04:56:13.256Z,82.59
2022-10-17T04:57:15.145Z,82.12
2022-10-17T04:58:17.005Z,81.48
2022-10-17T04:59:18.531Z,81.38
2022-10-17T05:00:20.398Z,81.25
2022-10-17T05:01:23.398Z,81.57
2022-10-17T05:02:24.971Z,80.54
2022-10-17T05:03:26.391Z,81.29
2022-10-17T05:04:27.820Z,82.44
2022-10-17T05:05:29.237Z,83.12
2022-10-17T05:06:30.677Z,83.69
2022-10-17T05:07:32.105Z,84.07
2022-10-17T05:08:35.355Z,84.49
2022-10-17T05:09:36.767Z,84.39
2022-10-17T05:10:39.060Z,82.98
2022-10-17T05:11:42.319Z,82.72
2022-10-17T05:12:43.807Z,82.93
2022-10-17T05:13:49.427Z,83.41
2022-10-17T05:14:50.856Z,83.40
2022-10-17T05:15:52.339Z,82.91
2022-10-17T05:16:53.817Z,82.49
2022-10-17T05:17:55.648Z,82.67
2022-10-17T05:18:58.266Z,82.65
2022-10-17T05:19:59.688Z,83.28
2022-10-17T05:21:03.663Z,82.47
2022-10-17T05:22:05.101Z,82.63
2022-10-17T05:23:06.820Z,83.36
2022-10-17T05:24:13.338Z,83.99
2022-10-17T05:25:14.765Z,84.42
2022-10-17T05:26:16.671Z,83.31
2022-10-17T05:27:18.153Z,83.91
2022-10-17T05:28:19.560Z,83.24
2022-10-17T05:29:21.235Z,83.85
2022-10-17T05:30:22.767Z,83.49
2022-10-17T05:31:24.240Z,84.20
2022-10-17T05:32:25.686Z,83.34
2022-10-17T05:33:27.112Z,83.24
2022-10-17T05:34:28.561Z,82.81
2022-10-17T05:35:30.669Z,83.65
2022-10-17T05:36:32.145Z,84.31
2022-10-17T05:37:33.969Z,83.98
2022-10-17T05:38:35.875Z,83.76
2022-10-17T05:39:38.650Z,83.81
2022-10-17T05:40:40.191Z,83.43
2022-10-17T05:41:41.667Z,83.41
2022-10-17T05:42:46.593Z,83.25
2022-10-17T05:43:48.231Z,82.87
2022-10-17T05:44:49.751Z,83.44
2022-10-17T05:45:51.612Z,83.37
2022-10-17T05:46:53.064Z,83.46
2022-10-17T05:47:54.514Z,83.84
2022-10-17T05:48:55.996Z,84.20
2022-10-17T05:49:57.454Z,83.89
2022-10-17T05:50:59.840Z,83.59
2022-10-17T05:52:01.279Z,84.15
2022-10-17T05:53:02.755Z,84.03
2022-10-17T05:54:05.396Z,84.26
2022-10-17T05:55:09.334Z,84.12
2022-10-17T05:56:12.038Z,84.40
2022-10-17T05:57:13.509Z,84.73
2022-10-17T05:58:22.319Z,85.59
2022-10-17T05:59:28.706Z,85.48
2022-10-17T06:00:30.246Z,85.98
2022-10-17T06:01:32.228Z,86.39
2022-10-17T06:02:33.898Z,86.35
2022-10-17T06:03:35.745Z,85.61
2022-10-17T06:04:37.191Z,85.50
2022-10-17T06:05:38.636Z,86.08
2022-10-17T06:06:40.435Z,86.09
2022-10-17T06:07:42.173Z,85.94
2022-10-17T06:08:44.070Z,86.17
2022-10-17T06:10:53.341Z,86.67
2022-10-17T06:11:54.771Z,86.58
2022-10-17T06:12:56.204Z,85.94
2022-10-17T06:13:57.659Z,85.03
2022-10-17T06:14:59.124Z,84.91
2022-10-17T06:16:00.591Z,85.10
2022-10-17T06:17:02.081Z,85.51
2022-10-17T06:18:03.615Z,85.77
2022-10-17T06:19:05.157Z,86.48
2022-10-17T06:20:07.895Z,86.63
2022-10-17T06:21:11.497Z,86.75
2022-10-17T06:22:13.507Z,87.03
2022-10-17T06:23:15.482Z,87.13
2022-10-17T06:24:16.955Z,87.11
2022-10-17T06:25:18.457Z,87.50
2022-10-17T06:26:21.246Z,88.03
2022-10-17T06:27:22.862Z,88.47
2022-10-17T06:28:24.423Z,87.98
2022-10-17T06:29:25.943Z,87.58
2022-10-17T06:30:27.457Z,88.09
2022-10-17T06:31:29.111Z,88.30
2022-10-17T06:32:31.229Z,87.74
2022-10-17T06:33:32.942Z,87.69
2022-10-17T06:34:34.384Z,87.52
2022-10-17T06:35:35.866Z,87.68
2022-10-17T06:36:37.327Z,87.47
2022-10-17T06:37:39.055Z,87.48
2022-10-17T06:38:41.097Z,87.60
2022-10-17T06:39:42.612Z,87.63
2022-10-17T06:40:44.045Z,87.61
2022-10-17T06:41:46.785Z,87.39
2022-10-17T06:42:48.244Z,87.09
2022-10-17T06:43:49.773Z,87.75
2022-10-17T06:44:51.242Z,87.20
2022-10-17T06:45:52.720Z,87.48
2022-10-17T06:46:54.144Z,87.32
2022-10-17T06:47:55.569Z,87.00
2022-10-17T06:48:57.033Z,87.14
2022-10-17T06:49:58.517Z,87.40
2022-10-17T06:51:00.142Z,87.27
2022-10-17T06:52:01.555Z,87.21
2022-10-17T06:53:03.049Z,87.56
2022-10-17T06:54:04.495Z,87.65
2022-10-17T06:55:06.674Z,87.69
2022-10-17T06:56:09.587Z,87.45
2022-10-17T06:57:12.447Z,87.20
2022-10-17T06:58:13.861Z,87.58
2022-10-17T06:59:15.559Z,87.78
2022-10-17T07:00:16.982Z,87.39
2022-10-17T07:01:18.766Z,86.52
2022-10-17T07:02:20.213Z,86.59
2022-10-17T07:03:21.671Z,86.19
2022-10-17T07:04:23.117Z,85.80
2022-10-17T07:05:24.546Z,85.70
2022-10-17T07:06:26.035Z,85.35
2022-10-17T07:07:31.095Z,84.82
2022-10-17T07:08:32.946Z,85.17
2022-10-17T07:09:34.538Z,85.39
2022-10-17T07:10:35.960Z,85.76
2022-10-17T07:11:37.440Z,86.03
2022-10-17T07:12:40.237Z,85.33
2022-10-17T07:13:42.551Z,85.74
2022-10-17T07:14:43.992Z,85.31
2022-10-17T07:15:45.513Z,85.25
2022-10-17T07:16:46.974Z,85.28
2022-10-17T07:17:48.584Z,84.69
2022-10-17T07:18:50.705Z,84.31
2022-10-17T07:19:52.148Z,84.47
2022-10-17T07:20:54.281Z,83.74
2022-10-17T07:21:55.788Z,83.56
2022-10-17T07:22:57.651Z,84.61
2022-10-17T07:23:59.054Z,83.89
2022-10-17T07:25:00.585Z,84.01
2022-10-17T07:26:04.112Z,83.83
2022-10-17T07:27:05.547Z,84.05
2022-10-17T07:28:08.298Z,84.02
2022-10-17T07:29:10.170Z,83.42
2022-10-17T07:30:12.151Z,82.92
2022-10-17T07:31:15.602Z,82.26
2022-10-17T07:32:17.032Z,81.64
2022-10-17T07:33:18.473Z,80.64
2022-10-17T07:34:20.001Z,80.81
2022-10-17T07:35:21.540Z,79.74
2022-10-17T07:36:22.979Z,79.08
2022-10-17T07:37:24.528Z,79.37
2022-10-17T07:38:25.973Z,79.20
2022-10-17T07:39:27.897Z,79.00
2022-10-17T07:40:29.340Z,78.61
2022-10-17T07:41:30.751Z,78.32
2022-10-17T07:42:32.779Z,78.49
2022-10-17T07:43:35.826Z,78.01
2022-10-17T07:44:37.287Z,77.72
2022-10-17T07:45:40.570Z,77.71
2022-10-17T07:46:42.093Z,77.79
2022-10-17T07:47:44.183Z,77.53
2022-10-17T07:48:45.619Z,76.96
2022-10-17T07:49:47.127Z,76.46
2022-10-17T07:50:48.958Z,76.92
2022-10-17T07:51:50.409Z,77.14
2022-10-17T07:52:51.835Z,76.71
2022-10-17T07:53:53.435Z,76.72
2022-10-17T07:54:54.837Z,76.99
2022-10-17T07:55:56.259Z,77.43
2022-10-17T07:56:57.680Z,76.34
2022-10-17T07:57:59.117Z,76.01
2022-10-17T07:59:05.126Z,77.58
2022-10-17T08:00:10.600Z,78.77
2022-10-17T08:01:14.894Z,79.72
2022-10-17T08:02:22.260Z,80.03
2022-10-17T08:03:23.744Z,80.09
2022-10-17T08:04:25.598Z,79.48
2022-10-17T08:05:27.047Z,79.01
2022-10-17T08:06:28.495Z,79.15
2022-10-17T08:07:30.358Z,79.34
2022-10-17T08:08:31.843Z,79.84
2022-10-17T08:09:33.238Z,79.14
2022-10-17T08:10:34.640Z,78.32
2022-10-17T08:11:36.076Z,79.37
2022-10-17T08:12:37.536Z,79.82
2022-10-17T08:13:40.250Z,78.91
2022-10-17T08:14:43.681Z,78.01
2022-10-17T08:15:45.141Z,77.39
2022-10-17T08:16:46.840Z,77.99
2022-10-17T08:17:48.452Z,77.99
2022-10-17T08:18:49.962Z,77.18
2022-10-17T08:19:51.372Z,77.18
2022-10-17T08:20:56.716Z,76.58
2022-10-17T08:22:00.867Z,76.00
2022-10-17T08:23:02.268Z,75.65
2022-10-17T08:24:04.176Z,74.89
2022-10-17T08:25:06.788Z,75.13
2022-10-17T08:26:08.871Z,74.92
2022-10-17T08:27:10.310Z,74.89
2022-10-17T08:28:11.826Z,74.77
2022-10-17T08:29:14.277Z,73.89
2022-10-17T08:30:17.726Z,74.15
2022-10-17T08:31:20.230Z,74.04
2022-10-17T08:32:23.437Z,73.55
2022-10-17T08:33:24.857Z,73.44
2022-10-17T08:34:26.288Z,73.35
2022-10-17T08:35:27.993Z,73.28
2022-10-17T08:36:29.400Z,73.29
2022-10-17T08:37:31.215Z,73.25
2022-10-17T08:38:35.646Z,73.40
2022-10-17T08:39:37.329Z,73.18
2022-10-17T08:40:38.803Z,72.91
2022-10-17T08:41:52.302Z,72.84
2022-10-17T08:43:15.213Z,72.51
2022-10-17T08:44:32.157Z,73.70
2022-10-17T08:45:41.544Z,72.86
2022-10-17T08:46:47.215Z,73.86
2022-10-17T08:47:52.918Z,73.50
2022-10-17T08:48:54.504Z,73.94
2022-10-17T08:50:01.138Z,73.97
2022-10-17T08:51:09.972Z,73.90
2022-10-17T08:52:18.172Z,73.32
2022-10-17T08:53:24.459Z,73.71
2022-10-17T08:54:33.020Z,73.11
2022-10-17T08:55:40.014Z,73.50
2022-10-17T08:56:49.807Z,72.70
2022-10-17T08:57:51.415Z,73.24
2022-10-17T08:58:53.219Z,74.08
2022-10-17T08:59:54.773Z,73.48
2022-10-17T09:01:07.962Z,72.62
2022-10-17T09:02:28.345Z,72.12
2022-10-17T09:03:43.807Z,72.07
2022-10-17T09:04:58.516Z,72.10
2022-10-17T09:06:12.817Z,71.71
2022-10-17T09:07:22.012Z,72.41
2022-10-17T09:08:33.822Z,72.35
2022-10-17T09:09:42.007Z,71.51
2022-10-17T09:10:55.340Z,72.17
2022-10-17T09:12:10.141Z,71.08
2022-10-17T09:13:22.710Z,71.31
2022-10-17T09:15:10.468Z,71.35
2022-10-17T09:16:24.921Z,71.17
2022-10-17T09:17:38.057Z,70.55
2022-10-17T09:18:42.717Z,70.81
2022-10-17T09:19:52.241Z,70.17
2022-10-17T09:20:56.182Z,68.99
2022-10-17T09:22:01.418Z,68.94
2022-10-17T09:23:06.774Z,69.76
2022-10-17T09:24:17.128Z,69.99
2022-10-17T09:25:20.500Z,70.47
2022-10-17T09:26:22.564Z,69.67
2022-10-17T09:27:25.928Z,70.90
2022-10-17T09:28:31.416Z,73.65
2022-10-17T09:29:37.941Z,73.28
2022-10-17T09:30:45.869Z,74.58
2022-10-17T09:32:59.462Z,75.80
2022-10-17T09:34:02.743Z,75.94
2022-10-17T09:35:04.928Z,76.76
2022-10-17T09:36:11.819Z,77.25
2022-10-17T09:37:14.958Z,76.87
2022-10-17T09:38:19.253Z,76.32
2022-10-17T09:39:24.155Z,74.71
2022-10-17T09:40:31.548Z,73.08
2022-10-17T09:41:45.406Z,71.73
2022-10-17T09:42:50.056Z,71.30
2022-10-17T09:43:55.879Z,70.05
2022-10-17T09:45:15.880Z,67.73
2022-10-17T09:46:24.236Z,68.71
2022-10-17T09:47:31.801Z,68.65
2022-10-17T09:48:38.232Z,67.64
2022-10-17T09:49:41.877Z,68.33
2022-10-17T09:50:48.277Z,68.41
2022-10-17T09:51:55.420Z,68.14
2022-10-17T09:53:00.403Z,67.60
2022-10-17T09:54:07.107Z,67.89
2022-10-17T09:55:17.709Z,68.55
2022-10-17T09:56:19.826Z,68.83
2022-10-17T09:57:22.499Z,68.45
2022-10-17T09:58:39.280Z,67.96
2022-10-17T09:59:43.791Z,68.27
2022-10-17T10:00:47.462Z,68.87
2022-10-17T10:02:07.015Z,69.40
2022-10-17T10:03:14.339Z,68.39
2022-10-17T10:04:17.293Z,69.28
2022-10-17T10:05:19.410Z,69.28
2022-10-17T10:06:21.288Z,68.25
2022-10-17T10:07:28.976Z,68.35
2022-10-17T10:08:34.860Z,67.99
2022-10-17T10:09:39.465Z,67.78
2022-10-17T10:10:42.853Z,68.01
2022-10-17T10:11:47.270Z,68.48
2022-10-17T10:13:03.720Z,68.21
2022-10-17T10:14:12.243Z,68.26
2022-10-17T10:15:33.221Z,68.60
2022-10-17T10:16:42.448Z,68.76
2022-10-17T10:17:43.923Z,69.71
2022-10-17T10:18:48.723Z,68.95
2022-10-17T10:19:52.761Z,70.09
2022-10-17T10:21:07.390Z,69.72
2022-10-17T10:22:16.029Z,69.63
2022-10-17T10:23:18.664Z,69.05
2022-10-17T10:24:20.089Z,69.30
2022-10-17T10:25:21.913Z,70.21
2022-10-17T10:26:25.857Z,70.87
2022-10-17T10:27:29.173Z,70.86
2022-10-17T10:28:33.166Z,71.09
2022-10-17T10:29:36.526Z,71.45
2022-10-17T10:30:39.926Z,70.01
2022-10-17T10:31:41.735Z,69.10
2022-10-17T10:32:47.602Z,69.53
2022-10-17T10:33:52.121Z,69.77
2022-10-17T10:34:58.825Z,68.92
2022-10-17T10:36:02.096Z,69.10
2022-10-17T10:37:06.595Z,67.31
2022-10-17T10:38:13.587Z,68.18
2022-10-17T10:39:41.142Z,68.18
2022-10-17T10:40:46.826Z,67.82
2022-10-17T10:41:48.667Z,68.06
2022-10-17T10:42:52.038Z,68.82
2022-10-17T10:43:55.318Z,68.36
2022-10-17T10:45:02.478Z,67.68
2022-10-17T10:46:06.683Z,66.98
2022-10-17T10:47:15.557Z,67.26
2022-10-17T10:48:20.529Z,67.87
2022-10-17T10:49:31.259Z,67.13
2022-10-17T10:50:39.645Z,67.09
2022-10-17T10:51:47.730Z,66.47
2022-10-17T10:52:56.370Z,65.17
2022-10-17T10:54:03.519Z,66.45
2022-10-17T10:55:17.655Z,64.91
2022-10-17T10:56:23.259Z,65.77
2022-10-17T10:57:30.675Z,65.39
2022-10-17T10:58:41.971Z,65.12
2022-10-17T10:59:52.652Z,63.78
2022-10-17T11:00:56.441Z,64.49
2022-10-17T11:02:01.434Z,64.68
2022-10-17T11:03:13.299Z,62.75
2022-10-17T11:04:27.098Z,62.29
2022-10-17T11:05:39.858Z,62.28
2022-10-17T11:06:44.551Z,63.11
2022-10-17T11:07:53.394Z,62.55
2022-10-17T11:09:10.166Z,62.95
2022-10-17T11:10:17.576Z,63.07
2022-10-17T11:11:28.363Z,62.59
2022-10-17T11:12:35.279Z,63.32
2022-10-17T11:13:43.311Z,65.14
2022-10-17T11:14:51.196Z,65.57
2022-10-17T11:15:57.433Z,64.59
2022-10-17T11:17:08.691Z,63.29
2022-10-17T11:18:14.047Z,63.16
2022-10-17T11:19:21.389Z,64.46
2022-10-17T11:20:30.489Z,63.05
2022-10-17T11:22:49.694Z,63.52
2022-10-17T11:23:59.894Z,62.55
2022-10-17T11:25:05.216Z,62.84
2022-10-17T11:26:16.041Z,60.40
2022-10-17T11:27:17.475Z,61.75
2022-10-17T11:28:22.952Z,60.50
2022-10-17T11:29:28.550Z,59.76
2022-10-17T11:30:41.149Z,61.18
2022-10-17T11:31:47.932Z,60.54
2022-10-17T11:32:52.427Z,61.16
2022-10-17T11:33:57.498Z,61.48
2022-10-17T11:35:02.777Z,62.06
2022-10-17T11:36:06.816Z,63.16
2022-10-17T11:37:16.017Z,63.12
2022-10-17T11:38:25.146Z,64.27
2022-10-17T11:39:31.215Z,62.96
2022-10-17T11:40:35.905Z,63.30
2022-10-17T11:41:49.729Z,64.60
2022-10-17T11:42:57.344Z,65.00
2022-10-17T11:44:03.873Z,65.38
2022-10-17T11:45:13.405Z,65.93
2022-10-17T11:46:18.942Z,65.88
2022-10-17T11:47:31.697Z,66.16
2022-10-17T11:48:39.539Z,65.59
2022-10-17T11:49:46.944Z,65.58
2022-10-17T11:52:54.934Z,64.19
2022-10-17T11:53:59.028Z,65.33
2022-10-17T11:55:05.812Z,64.77
2022-10-17T11:56:11.386Z,65.17
2022-10-17T11:57:33.178Z,65.68
2022-10-17T11:58:40.235Z,65.55
2022-10-17T11:59:57.292Z,64.23
2022-10-17T12:01:10.065Z,64.16
2022-10-17T12:02:20.011Z,63.46
2022-10-17T12:03:40.330Z,63.18
2022-10-17T12:04:52.564Z,63.37
2022-10-17T12:05:59.836Z,63.78
2022-10-17T12:07:17.495Z,63.72
2022-10-17T12:08:27.951Z,64.08
2022-10-17T12:09:40.428Z,62.84
2022-10-17T12:10:48.802Z,63.11
2022-10-17T12:11:54.270Z,62.79
2022-10-17T12:12:55.706Z,62.76
2022-10-17T12:13:57.144Z,62.77
2022-10-17T12:15:29.618Z,62.71
2022-10-17T12:16:49.186Z,62.85
2022-10-17T12:17:55.373Z,63.13
2022-10-17T12:19:20.812Z,64.34
2022-10-17T12:20:28.110Z,63.94
2022-10-17T12:21:58.306Z,64.31
2022-10-17T12:23:21.664Z,65.22
2022-10-17T12:24:32.775Z,65.47
2022-10-17T12:25:36.680Z,65.49
2022-10-17T12:26:38.187Z,65.04
2022-10-17T12:27:43.751Z,64.78
2022-10-17T12:28:47.886Z,63.97
2022-10-17T12:29:50.129Z,64.11
2022-10-17T12:30:55.214Z,64.72
2022-10-17T12:32:11.273Z,64.65
2022-10-17T12:33:18.194Z,64.78
2022-10-17T12:34:23.674Z,64.35
2022-10-17T12:35:26.853Z,63.37
2022-10-17T12:36:46.057Z,63.83
2022-10-17T12:38:28.565Z,64.06
2022-10-17T12:39:50.783Z,65.09
2022-10-17T12:41:10.072Z,63.53
2022-10-17T12:42:44.846Z,63.80
2022-10-17T12:44:56.438Z,63.52
2022-10-17T12:45:58.704Z,63.26
2022-10-17T12:47:36.456Z,64.07
2022-10-17T12:49:04.140Z,64.28
2022-10-17T12:50:47.174Z,64.97
2022-10-17T12:52:23.482Z,65.77
2022-10-17T12:53:32.939Z,65.72
2022-10-17T12:54:47.677Z,65.86
2022-10-17T12:55:59.674Z,65.25
2022-10-17T12:57:01.159Z,65.68
2022-10-17T12:58:04.942Z,65.03
2022-10-17T12:59:12.093Z,64.80
2022-10-17T13:00:19.152Z,64.74
2022-10-17T13:01:27.457Z,64.19
2022-10-17T13:02:31.792Z,64.20
2022-10-17T13:03:41.203Z,64.46
2022-10-17T13:04:42.848Z,64.76
2022-10-17T13:05:49.162Z,64.18
2022-10-17T13:06:53.176Z,65.24
2022-10-17T13:07:56.318Z,64.14
2022-10-17T13:09:03.818Z,64.64
2022-10-17T13:10:08.021Z,64.51
2022-10-17T13:11:10.561Z,64.84
2022-10-17T13:12:14.861Z,64.38
2022-10-17T13:13:19.774Z,64.61
2022-10-17T13:14:23.268Z,64.46
2022-10-17T13:15:24.948Z,64.46
2022-10-17T13:16:30.361Z,64.30
2022-10-17T13:17:33.196Z,64.30
2022-10-17T13:18:35.044Z,63.01
2022-10-17T13:19:41.201Z,60.63
2022-10-17T13:20:42.639Z,58.81
2022-10-17T13:21:50.424Z,58.77
2022-10-17T13:22:51.867Z,58.24
2022-10-17T13:23:53.558Z,58.57
2022-10-17T13:25:07.413Z,57.45
2022-10-17T13:26:14.901Z,58.03
2022-10-17T13:27:25.964Z,57.95
2022-10-17T13:28:27.450Z,58.57
2022-10-17T13:29:29.416Z,58.58
2022-10-17T13:30:34.641Z,59.49
2022-10-17T13:31:38.107Z,59.29
2022-10-17T13:32:40.887Z,59.05
2022-10-17T13:33:42.378Z,58.84
2022-10-17T13:34:43.850Z,58.67
2022-10-17T13:35:59.898Z,59.44
2022-10-17T13:37:04.996Z,58.99
2022-10-17T13:38:06.882Z,60.38
2022-10-17T13:39:14.934Z,60.76
2022-10-17T13:40:43.966Z,60.76
2022-10-17T13:41:42.713Z,60.52
2022-10-17T13:42:44.784Z,60.70
2022-10-17T13:43:46.267Z,60.19
2022-10-17T13:44:48.223Z,60.52
2022-10-17T13:45:52.044Z,60.30
2022-10-17T13:46:54.284Z,60.60
2022-10-17T13:47:59.615Z,60.47
2022-10-17T13:49:11.097Z,60.19
2022-10-17T13:50:43.261Z,60.81
2022-10-17T13:51:46.040Z,60.75
2022-10-17T13:52:47.561Z,60.62
2022-10-17T13:53:49.029Z,60.18
2022-10-17T13:54:51.802Z,60.11
2022-10-17T13:56:22.995Z,59.79
2022-10-17T13:57:24.763Z,60.09
2022-10-17T13:58:27.035Z,59.66
2022-10-17T13:59:33.907Z,59.92
2022-10-17T14:00:35.676Z,59.55
2022-10-17T14:01:38.081Z,59.66
2022-10-17T14:02:41.325Z,59.36
2022-10-17T14:03:48.743Z,59.79
2022-10-17T14:05:17.816Z,60.13
2022-10-17T14:06:22.036Z,59.22
2022-10-17T14:07:41.576Z,58.93
2022-10-17T14:08:55.272Z,58.92
2022-10-17T14:09:56.802Z,59.35